sensor_id;sensor_type;location;lat;lon;timestamp;temperature;humidity
13436;DHT22;6790;49.520;8.504;2022-07-29T00:00:44;19.00;89.50
13436;DHT22;6790;49.520;8.504;2022-07-29T00:03:13;19.00;90.60
13436;DHT22;6790;49.520;8.504;2022-07-29T00:05:42;18.90;90.00
13436;DHT22;6790;49.520;8.504;2022-07-29T00:08:08;18.80;90.50
13436;DHT22;6790;49.520;8.504;2022-07-29T00:10:34;18.80;90.60
13436;DHT22;6790;49.520;8.504;2022-07-29T00:13:00;18.80;90.70
13436;DHT22;6790;49.520;8.504;2022-07-29T00:15:27;18.70;90.90
13436;DHT22;6790;49.520;8.504;2022-07-29T00:17:52;18.70;90.70
13436;DHT22;6790;49.520;8.504;2022-07-29T00:20:18;18.80;91.00
13436;DHT22;6790;49.520;8.504;2022-07-29T00:22:44;18.80;90.80
13436;DHT22;6790;49.520;8.504;2022-07-29T00:25:12;18.80;91.10
13436;DHT22;6790;49.520;8.504;2022-07-29T00:27:38;18.80;91.00
13436;DHT22;6790;49.520;8.504;2022-07-29T00:30:05;18.80;91.10
13436;DHT22;6790;49.520;8.504;2022-07-29T00:32:31;18.80;91.20
13436;DHT22;6790;49.520;8.504;2022-07-29T00:34:57;18.80;91.30
13436;DHT22;6790;49.520;8.504;2022-07-29T00:37:41;18.80;91.50
13436;DHT22;6790;49.520;8.504;2022-07-29T00:40:07;18.80;91.80
13436;DHT22;6790;49.520;8.504;2022-07-29T00:42:44;18.80;91.70
13436;DHT22;6790;49.520;8.504;2022-07-29T00:45:15;18.80;91.80
13436;DHT22;6790;49.520;8.504;2022-07-29T00:47:41;18.80;91.90
13436;DHT22;6790;49.520;8.504;2022-07-29T00:50:09;18.90;92.90
13436;DHT22;6790;49.520;8.504;2022-07-29T00:52:36;18.90;92.10
13436;DHT22;6790;49.520;8.504;2022-07-29T00:55:05;18.90;90.80
13436;DHT22;6790;49.520;8.504;2022-07-29T00:57:32;19.10;90.90
13436;DHT22;6790;49.520;8.504;2022-07-29T00:59:58;19.10;91.00
13436;DHT22;6790;49.520;8.504;2022-07-29T01:02:24;19.10;90.20
13436;DHT22;6790;49.520;8.504;2022-07-29T01:04:50;19.20;90.30
13436;DHT22;6790;49.520;8.504;2022-07-29T01:07:17;19.10;90.30
13436;DHT22;6790;49.520;8.504;2022-07-29T01:09:44;19.10;88.20
13436;DHT22;6790;49.520;8.504;2022-07-29T01:12:12;19.10;86.50
13436;DHT22;6790;49.520;8.504;2022-07-29T01:14:39;19.10;89.50
13436;DHT22;6790;49.520;8.504;2022-07-29T01:17:24;19.10;86.10
13436;DHT22;6790;49.520;8.504;2022-07-29T01:20:12;19.10;88.00
13436;DHT22;6790;49.520;8.504;2022-07-29T01:25:46;19.00;89.80
13436;DHT22;6790;49.520;8.504;2022-07-29T01:34:21;19.00;86.70
13436;DHT22;6790;49.520;8.504;2022-07-29T01:37:05;18.90;84.90
13436;DHT22;6790;49.520;8.504;2022-07-29T01:39:36;18.90;86.60
13436;DHT22;6790;49.520;8.504;2022-07-29T01:42:10;18.80;84.00
13436;DHT22;6790;49.520;8.504;2022-07-29T01:44:48;18.70;85.70
13436;DHT22;6790;49.520;8.504;2022-07-29T01:47:21;18.80;88.20
13436;DHT22;6790;49.520;8.504;2022-07-29T01:49:52;18.70;85.80
13436;DHT22;6790;49.520;8.504;2022-07-29T01:52:25;18.60;84.30
13436;DHT22;6790;49.520;8.504;2022-07-29T01:54:59;18.50;88.70
13436;DHT22;6790;49.520;8.504;2022-07-29T01:57:31;18.50;89.20
13436;DHT22;6790;49.520;8.504;2022-07-29T01:59:59;18.40;89.30
13436;DHT22;6790;49.520;8.504;2022-07-29T02:02:27;18.40;88.50
13436;DHT22;6790;49.520;8.504;2022-07-29T02:04:54;18.30;87.10
13436;DHT22;6790;49.520;8.504;2022-07-29T02:07:21;18.20;88.00
13436;DHT22;6790;49.520;8.504;2022-07-29T02:09:50;18.10;88.90
13436;DHT22;6790;49.520;8.504;2022-07-29T02:12:18;18.00;90.60
13436;DHT22;6790;49.520;8.504;2022-07-29T02:14:50;18.00;90.60
13436;DHT22;6790;49.520;8.504;2022-07-29T02:17:23;18.00;90.60
13436;DHT22;6790;49.520;8.504;2022-07-29T02:19:59;18.00;91.10
13436;DHT22;6790;49.520;8.504;2022-07-29T02:22:28;17.90;90.70
13436;DHT22;6790;49.520;8.504;2022-07-29T02:24:55;17.90;91.50
13436;DHT22;6790;49.520;8.504;2022-07-29T02:27:23;17.90;91.30
13436;DHT22;6790;49.520;8.504;2022-07-29T02:29:51;17.90;91.40
13436;DHT22;6790;49.520;8.504;2022-07-29T02:32:19;17.80;91.20
13436;DHT22;6790;49.520;8.504;2022-07-29T02:34:47;17.80;91.30
13436;DHT22;6790;49.520;8.504;2022-07-29T02:37:16;17.70;91.10
13436;DHT22;6790;49.520;8.504;2022-07-29T02:39:44;17.70;91.80
13436;DHT22;6790;49.520;8.504;2022-07-29T02:42:13;17.70;92.20
13436;DHT22;6790;49.520;8.504;2022-07-29T02:44:40;17.60;91.60
13436;DHT22;6790;49.520;8.504;2022-07-29T02:47:20;17.60;92.10
13436;DHT22;6790;49.520;8.504;2022-07-29T02:50:00;17.50;91.90
13436;DHT22;6790;49.520;8.504;2022-07-29T02:52:43;17.50;91.70
13436;DHT22;6790;49.520;8.504;2022-07-29T02:55:40;17.40;93.10
13436;DHT22;6790;49.520;8.504;2022-07-29T02:58:08;17.40;92.80
13436;DHT22;6790;49.520;8.504;2022-07-29T03:00:39;17.40;93.00
13436;DHT22;6790;49.520;8.504;2022-07-29T03:03:10;17.40;93.00
13436;DHT22;6790;49.520;8.504;2022-07-29T03:05:39;17.40;93.00
13436;DHT22;6790;49.520;8.504;2022-07-29T03:08:07;17.30;93.70
13436;DHT22;6790;49.520;8.504;2022-07-29T03:10:35;17.20;94.00
13436;DHT22;6790;49.520;8.504;2022-07-29T03:13:04;17.10;94.10
13436;DHT22;6790;49.520;8.504;2022-07-29T03:15:30;17.10;94.80
13436;DHT22;6790;49.520;8.504;2022-07-29T03:17:58;17.10;94.90
13436;DHT22;6790;49.520;8.504;2022-07-29T03:20:24;17.10;94.90
13436;DHT22;6790;49.520;8.504;2022-07-29T03:22:50;17.10;94.90
13436;DHT22;6790;49.520;8.504;2022-07-29T03:25:19;17.00;95.60
13436;DHT22;6790;49.520;8.504;2022-07-29T03:27:46;16.90;95.60
13436;DHT22;6790;49.520;8.504;2022-07-29T03:30:13;16.90;96.10
13436;DHT22;6790;49.520;8.504;2022-07-29T03:32:40;16.90;96.40
13436;DHT22;6790;49.520;8.504;2022-07-29T03:35:07;16.80;96.90
13436;DHT22;6790;49.520;8.504;2022-07-29T03:37:33;16.80;97.30
13436;DHT22;6790;49.520;8.504;2022-07-29T03:40:03;16.80;97.30
13436;DHT22;6790;49.520;8.504;2022-07-29T03:42:32;16.70;97.30
13436;DHT22;6790;49.520;8.504;2022-07-29T03:45:03;16.70;97.50
13436;DHT22;6790;49.520;8.504;2022-07-29T03:47:33;16.70;97.50
13436;DHT22;6790;49.520;8.504;2022-07-29T03:50:05;16.70;97.20
13436;DHT22;6790;49.520;8.504;2022-07-29T03:52:32;16.70;97.30
13436;DHT22;6790;49.520;8.504;2022-07-29T03:54:58;16.70;97.50
13436;DHT22;6790;49.520;8.504;2022-07-29T03:57:26;16.70;98.30
13436;DHT22;6790;49.520;8.504;2022-07-29T03:59:53;16.60;98.40
13436;DHT22;6790;49.520;8.504;2022-07-29T04:02:20;16.60;98.60
13436;DHT22;6790;49.520;8.504;2022-07-29T04:04:46;16.60;98.90
13436;DHT22;6790;49.520;8.504;2022-07-29T04:07:13;16.60;99.40
13436;DHT22;6790;49.520;8.504;2022-07-29T04:09:39;16.60;99.40
13436;DHT22;6790;49.520;8.504;2022-07-29T04:12:05;16.50;99.50
13436;DHT22;6790;49.520;8.504;2022-07-29T04:14:32;16.50;99.90
13436;DHT22;6790;49.520;8.504;2022-07-29T04:16:59;16.60;99.70
13436;DHT22;6790;49.520;8.504;2022-07-29T04:19:25;16.60;99.90
13436;DHT22;6790;49.520;8.504;2022-07-29T04:21:51;16.60;99.90
13436;DHT22;6790;49.520;8.504;2022-07-29T04:24:17;16.60;99.90
13436;DHT22;6790;49.520;8.504;2022-07-29T04:26:44;16.60;99.90
13436;DHT22;6790;49.520;8.504;2022-07-29T04:29:10;16.60;99.90
13436;DHT22;6790;49.520;8.504;2022-07-29T04:31:37;16.70;99.90
13436;DHT22;6790;49.520;8.504;2022-07-29T04:34:03;16.70;99.90
13436;DHT22;6790;49.520;8.504;2022-07-29T04:36:29;16.70;99.90
13436;DHT22;6790;49.520;8.504;2022-07-29T04:38:54;16.70;99.90
13436;DHT22;6790;49.520;8.504;2022-07-29T04:41:20;16.70;99.90
13436;DHT22;6790;49.520;8.504;2022-07-29T04:43:46;16.80;99.90
13436;DHT22;6790;49.520;8.504;2022-07-29T04:46:11;16.90;99.90
13436;DHT22;6790;49.520;8.504;2022-07-29T04:48:37;17.00;99.90
13436;DHT22;6790;49.520;8.504;2022-07-29T04:51:03;17.00;99.90
13436;DHT22;6790;49.520;8.504;2022-07-29T04:53:29;17.10;99.90
13436;DHT22;6790;49.520;8.504;2022-07-29T04:55:55;17.10;99.90
13436;DHT22;6790;49.520;8.504;2022-07-29T04:58:20;17.20;99.90
13436;DHT22;6790;49.520;8.504;2022-07-29T05:00:48;17.30;99.90
13436;DHT22;6790;49.520;8.504;2022-07-29T05:03:14;17.40;99.90
13436;DHT22;6790;49.520;8.504;2022-07-29T05:05:39;17.40;99.90
13436;DHT22;6790;49.520;8.504;2022-07-29T05:08:06;17.50;99.90
13436;DHT22;6790;49.520;8.504;2022-07-29T05:10:32;17.60;99.90
13436;DHT22;6790;49.520;8.504;2022-07-29T05:12:59;17.60;99.90
13436;DHT22;6790;49.520;8.504;2022-07-29T05:15:24;17.70;99.70
13436;DHT22;6790;49.520;8.504;2022-07-29T05:17:51;17.70;99.40
13436;DHT22;6790;49.520;8.504;2022-07-29T05:20:16;17.80;99.10
13436;DHT22;6790;49.520;8.504;2022-07-29T05:22:43;17.90;98.60
13436;DHT22;6790;49.520;8.504;2022-07-29T05:25:09;17.90;99.10
13436;DHT22;6790;49.520;8.504;2022-07-29T05:27:35;18.00;99.40
13436;DHT22;6790;49.520;8.504;2022-07-29T05:30:02;18.10;98.50
13436;DHT22;6790;49.520;8.504;2022-07-29T05:32:28;18.20;98.90
13436;DHT22;6790;49.520;8.504;2022-07-29T05:34:54;18.30;98.20
13436;DHT22;6790;49.520;8.504;2022-07-29T05:37:20;18.40;97.20
13436;DHT22;6790;49.520;8.504;2022-07-29T05:39:45;18.50;96.50
13436;DHT22;6790;49.520;8.504;2022-07-29T05:42:11;18.60;96.60
13436;DHT22;6790;49.520;8.504;2022-07-29T05:44:38;18.70;96.70
13436;DHT22;6790;49.520;8.504;2022-07-29T05:47:05;18.80;97.20
13436;DHT22;6790;49.520;8.504;2022-07-29T05:49:31;18.90;95.80
13436;DHT22;6790;49.520;8.504;2022-07-29T05:51:57;19.10;95.00
13436;DHT22;6790;49.520;8.504;2022-07-29T05:54:23;19.20;94.90
13436;DHT22;6790;49.520;8.504;2022-07-29T05:56:49;19.40;95.20
13436;DHT22;6790;49.520;8.504;2022-07-29T05:59:15;19.50;94.30
13436;DHT22;6790;49.520;8.504;2022-07-29T06:01:41;19.60;94.00
13436;DHT22;6790;49.520;8.504;2022-07-29T06:04:07;19.80;93.50
13436;DHT22;6790;49.520;8.504;2022-07-29T06:06:33;19.80;93.70
13436;DHT22;6790;49.520;8.504;2022-07-29T06:09:00;19.90;95.10
13436;DHT22;6790;49.520;8.504;2022-07-29T06:11:26;20.10;94.00
13436;DHT22;6790;49.520;8.504;2022-07-29T06:13:52;20.30;92.10
13436;DHT22;6790;49.520;8.504;2022-07-29T06:16:18;20.50;91.60
13436;DHT22;6790;49.520;8.504;2022-07-29T06:18:44;20.70;91.70
13436;DHT22;6790;49.520;8.504;2022-07-29T06:21:10;20.80;91.10
13436;DHT22;6790;49.520;8.504;2022-07-29T06:23:37;20.90;91.70
13436;DHT22;6790;49.520;8.504;2022-07-29T06:26:04;21.00;92.20
13436;DHT22;6790;49.520;8.504;2022-07-29T06:28:30;21.20;91.20
13436;DHT22;6790;49.520;8.504;2022-07-29T06:30:56;21.20;90.70
13436;DHT22;6790;49.520;8.504;2022-07-29T06:33:21;21.30;90.90
13436;DHT22;6790;49.520;8.504;2022-07-29T06:35:47;21.50;90.90
13436;DHT22;6790;49.520;8.504;2022-07-29T06:38:14;21.70;91.50
13436;DHT22;6790;49.520;8.504;2022-07-29T06:40:41;22.00;89.50
13436;DHT22;6790;49.520;8.504;2022-07-29T06:43:39;22.10;91.40
13436;DHT22;6790;49.520;8.504;2022-07-29T06:46:11;22.20;87.50
13436;DHT22;6790;49.520;8.504;2022-07-29T06:48:43;22.20;85.80
13436;DHT22;6790;49.520;8.504;2022-07-29T06:51:09;22.10;90.40
13436;DHT22;6790;49.520;8.504;2022-07-29T06:53:37;22.00;92.20
13436;DHT22;6790;49.520;8.504;2022-07-29T06:56:05;22.00;91.80
13436;DHT22;6790;49.520;8.504;2022-07-29T06:58:33;22.00;94.50
13436;DHT22;6790;49.520;8.504;2022-07-29T07:01:02;22.10;91.30
13436;DHT22;6790;49.520;8.504;2022-07-29T07:03:29;22.10;91.90
13436;DHT22;6790;49.520;8.504;2022-07-29T07:05:56;22.20;92.70
13436;DHT22;6790;49.520;8.504;2022-07-29T07:08:22;22.40;92.80
13436;DHT22;6790;49.520;8.504;2022-07-29T07:10:49;22.90;88.80
13436;DHT22;6790;49.520;8.504;2022-07-29T07:13:15;23.10;86.40
13436;DHT22;6790;49.520;8.504;2022-07-29T07:15:43;23.20;91.00
13436;DHT22;6790;49.520;8.504;2022-07-29T07:18:10;23.10;90.40
13436;DHT22;6790;49.520;8.504;2022-07-29T07:20:36;23.30;90.30
13436;DHT22;6790;49.520;8.504;2022-07-29T07:23:02;23.20;85.80
13436;DHT22;6790;49.520;8.504;2022-07-29T07:25:28;23.10;84.30
13436;DHT22;6790;49.520;8.504;2022-07-29T07:27:53;23.00;89.40
13436;DHT22;6790;49.520;8.504;2022-07-29T07:30:19;23.20;85.70
13436;DHT22;6790;49.520;8.504;2022-07-29T07:32:45;23.50;84.40
13436;DHT22;6790;49.520;8.504;2022-07-29T07:35:11;23.80;80.50
13436;DHT22;6790;49.520;8.504;2022-07-29T07:37:37;24.20;81.00
13436;DHT22;6790;49.520;8.504;2022-07-29T07:40:04;24.40;76.20
13436;DHT22;6790;49.520;8.504;2022-07-29T07:42:30;24.30;77.20
13436;DHT22;6790;49.520;8.504;2022-07-29T07:44:56;24.20;78.80
13436;DHT22;6790;49.520;8.504;2022-07-29T07:47:21;24.00;85.10
13436;DHT22;6790;49.520;8.504;2022-07-29T07:49:49;23.70;85.70
13436;DHT22;6790;49.520;8.504;2022-07-29T07:52:16;23.50;89.80
13436;DHT22;6790;49.520;8.504;2022-07-29T07:54:43;23.40;87.90
13436;DHT22;6790;49.520;8.504;2022-07-29T07:57:10;23.30;88.30
13436;DHT22;6790;49.520;8.504;2022-07-29T07:59:40;23.30;87.20
13436;DHT22;6790;49.520;8.504;2022-07-29T08:02:06;23.60;87.00
13436;DHT22;6790;49.520;8.504;2022-07-29T08:04:33;23.60;82.30
13436;DHT22;6790;49.520;8.504;2022-07-29T08:06:59;23.40;86.70
13436;DHT22;6790;49.520;8.504;2022-07-29T08:09:26;23.40;86.20
13436;DHT22;6790;49.520;8.504;2022-07-29T08:11:53;23.50;86.00
13436;DHT22;6790;49.520;8.504;2022-07-29T08:14:19;23.60;88.20
13436;DHT22;6790;49.520;8.504;2022-07-29T08:16:44;23.60;86.80
13436;DHT22;6790;49.520;8.504;2022-07-29T08:19:10;23.60;83.50
13436;DHT22;6790;49.520;8.504;2022-07-29T08:21:36;23.50;82.80
13436;DHT22;6790;49.520;8.504;2022-07-29T08:24:03;23.50;84.30
13436;DHT22;6790;49.520;8.504;2022-07-29T08:26:47;23.60;89.50
13436;DHT22;6790;49.520;8.504;2022-07-29T08:29:13;23.80;88.70
13436;DHT22;6790;49.520;8.504;2022-07-29T08:31:39;23.80;83.80
13436;DHT22;6790;49.520;8.504;2022-07-29T08:34:05;24.30;84.30
13436;DHT22;6790;49.520;8.504;2022-07-29T08:36:32;24.60;78.10
13436;DHT22;6790;49.520;8.504;2022-07-29T08:38:58;24.90;80.00
13436;DHT22;6790;49.520;8.504;2022-07-29T08:41:25;25.00;80.70
13436;DHT22;6790;49.520;8.504;2022-07-29T08:43:51;25.00;80.60
13436;DHT22;6790;49.520;8.504;2022-07-29T08:46:18;25.40;79.00
13436;DHT22;6790;49.520;8.504;2022-07-29T08:48:45;25.40;77.70
13436;DHT22;6790;49.520;8.504;2022-07-29T08:51:20;25.10;76.40
13436;DHT22;6790;49.520;8.504;2022-07-29T08:53:48;25.00;84.60
13436;DHT22;6790;49.520;8.504;2022-07-29T08:56:15;25.00;82.90
13436;DHT22;6790;49.520;8.504;2022-07-29T08:58:46;25.30;81.10
13436;DHT22;6790;49.520;8.504;2022-07-29T09:01:16;25.80;81.30
13436;DHT22;6790;49.520;8.504;2022-07-29T09:03:44;25.80;77.30
13436;DHT22;6790;49.520;8.504;2022-07-29T09:06:15;25.80;74.90
13436;DHT22;6790;49.520;8.504;2022-07-29T09:08:44;25.70;80.60
13436;DHT22;6790;49.520;8.504;2022-07-29T09:11:11;25.40;78.80
13436;DHT22;6790;49.520;8.504;2022-07-29T09:13:37;25.30;79.80
13436;DHT22;6790;49.520;8.504;2022-07-29T09:16:03;25.50;81.70
13436;DHT22;6790;49.520;8.504;2022-07-29T09:18:40;25.60;75.20
13436;DHT22;6790;49.520;8.504;2022-07-29T09:21:10;25.60;75.70
13436;DHT22;6790;49.520;8.504;2022-07-29T09:26:37;26.60;74.00
13436;DHT22;6790;49.520;8.504;2022-07-29T09:29:16;26.50;71.80
13436;DHT22;6790;49.520;8.504;2022-07-29T09:31:48;26.70;71.70
13436;DHT22;6790;49.520;8.504;2022-07-29T09:34:23;26.80;69.60
13436;DHT22;6790;49.520;8.504;2022-07-29T09:36:52;26.80;64.90
13436;DHT22;6790;49.520;8.504;2022-07-29T09:39:30;26.40;76.30
13436;DHT22;6790;49.520;8.504;2022-07-29T09:42:01;26.70;70.20
13436;DHT22;6790;49.520;8.504;2022-07-29T09:44:46;26.60;70.00
13436;DHT22;6790;49.520;8.504;2022-07-29T09:47:14;26.80;73.20
13436;DHT22;6790;49.520;8.504;2022-07-29T09:50:10;27.30;70.40
13436;DHT22;6790;49.520;8.504;2022-07-29T09:52:49;27.20;65.60
13436;DHT22;6790;49.520;8.504;2022-07-29T09:55:16;27.30;66.10
13436;DHT22;6790;49.520;8.504;2022-07-29T09:57:42;27.40;65.50
13436;DHT22;6790;49.520;8.504;2022-07-29T10:02:45;28.00;63.00
13436;DHT22;6790;49.520;8.504;2022-07-29T10:05:22;27.90;57.80
13436;DHT22;6790;49.520;8.504;2022-07-29T10:07:51;27.80;65.90
13436;DHT22;6790;49.520;8.504;2022-07-29T10:12:59;27.20;62.60
13436;DHT22;6790;49.520;8.504;2022-07-29T10:15:31;27.50;58.50
13436;DHT22;6790;49.520;8.504;2022-07-29T10:17:59;27.30;60.20
13436;DHT22;6790;49.520;8.504;2022-07-29T10:20:26;27.30;59.40
13436;DHT22;6790;49.520;8.504;2022-07-29T10:22:53;27.30;63.20
13436;DHT22;6790;49.520;8.504;2022-07-29T10:25:21;26.90;62.10
13436;DHT22;6790;49.520;8.504;2022-07-29T10:27:48;26.70;62.70
13436;DHT22;6790;49.520;8.504;2022-07-29T10:30:18;27.00;62.70
13436;DHT22;6790;49.520;8.504;2022-07-29T10:44:22;27.00;59.40
13436;DHT22;6790;49.520;8.504;2022-07-29T10:46:51;26.60;68.10
13436;DHT22;6790;49.520;8.504;2022-07-29T10:49:22;26.60;70.20
13436;DHT22;6790;49.520;8.504;2022-07-29T10:54:16;27.20;62.90
13436;DHT22;6790;49.520;8.504;2022-07-29T10:56:43;27.30;60.90
13436;DHT22;6790;49.520;8.504;2022-07-29T11:01:44;27.10;61.80
13436;DHT22;6790;49.520;8.504;2022-07-29T11:04:10;27.10;67.50
13436;DHT22;6790;49.520;8.504;2022-07-29T11:09:27;27.00;71.00
13436;DHT22;6790;49.520;8.504;2022-07-29T11:11:55;27.20;60.70
13436;DHT22;6790;49.520;8.504;2022-07-29T11:17:19;27.10;69.00
13436;DHT22;6790;49.520;8.504;2022-07-29T11:19:44;27.30;62.50
13436;DHT22;6790;49.520;8.504;2022-07-29T11:22:11;27.20;62.90
13436;DHT22;6790;49.520;8.504;2022-07-29T11:24:37;26.80;59.90
13436;DHT22;6790;49.520;8.504;2022-07-29T11:27:11;26.50;69.20
13436;DHT22;6790;49.520;8.504;2022-07-29T11:29:49;26.50;70.10
13436;DHT22;6790;49.520;8.504;2022-07-29T11:32:19;26.50;68.90
13436;DHT22;6790;49.520;8.504;2022-07-29T11:34:47;26.90;69.00
13436;DHT22;6790;49.520;8.504;2022-07-29T11:37:15;27.30;72.10
13436;DHT22;6790;49.520;8.504;2022-07-29T11:39:46;27.80;65.20
13436;DHT22;6790;49.520;8.504;2022-07-29T11:47:41;27.90;59.80
13436;DHT22;6790;49.520;8.504;2022-07-29T11:50:15;28.10;57.40
13436;DHT22;6790;49.520;8.504;2022-07-29T11:52:44;28.30;54.50
13436;DHT22;6790;49.520;8.504;2022-07-29T11:55:30;28.90;53.40
13436;DHT22;6790;49.520;8.504;2022-07-29T11:58:00;29.10;51.50
13436;DHT22;6790;49.520;8.504;2022-07-29T12:00:35;29.40;48.40
13436;DHT22;6790;49.520;8.504;2022-07-29T12:03:07;29.10;49.50
13436;DHT22;6790;49.520;8.504;2022-07-29T12:05:38;28.80;54.60
13436;DHT22;6790;49.520;8.504;2022-07-29T12:08:26;29.20;53.50
13436;DHT22;6790;49.520;8.504;2022-07-29T12:10:52;29.60;45.60
13436;DHT22;6790;49.520;8.504;2022-07-29T12:13:22;29.80;41.10
13436;DHT22;6790;49.520;8.504;2022-07-29T12:15:56;29.30;50.00
13436;DHT22;6790;49.520;8.504;2022-07-29T12:18:24;29.70;43.00
13436;DHT22;6790;49.520;8.504;2022-07-29T12:20:57;29.70;45.90
13436;DHT22;6790;49.520;8.504;2022-07-29T12:23:24;29.90;42.40
13436;DHT22;6790;49.520;8.504;2022-07-29T12:25:50;30.30;39.10
13436;DHT22;6790;49.520;8.504;2022-07-29T12:28:16;30.40;38.90
13436;DHT22;6790;49.520;8.504;2022-07-29T12:30:46;30.30;38.60
13436;DHT22;6790;49.520;8.504;2022-07-29T12:33:19;29.90;36.60
13436;DHT22;6790;49.520;8.504;2022-07-29T12:35:53;29.00;41.60
13436;DHT22;6790;49.520;8.504;2022-07-29T12:38:20;28.90;49.00
13436;DHT22;6790;49.520;8.504;2022-07-29T12:40:47;28.90;42.80
13436;DHT22;6790;49.520;8.504;2022-07-29T12:43:16;29.00;46.80
13436;DHT22;6790;49.520;8.504;2022-07-29T12:45:48;29.20;45.90
13436;DHT22;6790;49.520;8.504;2022-07-29T12:48:39;29.70;44.30
13436;DHT22;6790;49.520;8.504;2022-07-29T12:51:07;29.40;39.90
13436;DHT22;6790;49.520;8.504;2022-07-29T12:53:35;29.60;43.50
13436;DHT22;6790;49.520;8.504;2022-07-29T12:56:02;29.80;40.10
13436;DHT22;6790;49.520;8.504;2022-07-29T13:01:12;29.70;42.70
13436;DHT22;6790;49.520;8.504;2022-07-29T13:03:50;29.40;37.30
13436;DHT22;6790;49.520;8.504;2022-07-29T13:06:32;29.40;40.80
13436;DHT22;6790;49.520;8.504;2022-07-29T13:09:16;29.70;40.10
13436;DHT22;6790;49.520;8.504;2022-07-29T13:11:45;29.60;36.50
13436;DHT22;6790;49.520;8.504;2022-07-29T13:14:36;29.20;38.00
13436;DHT22;6790;49.520;8.504;2022-07-29T13:19:40;29.00;35.50
13436;DHT22;6790;49.520;8.504;2022-07-29T13:22:24;29.20;38.90
13436;DHT22;6790;49.520;8.504;2022-07-29T13:24:58;29.30;34.50
13436;DHT22;6790;49.520;8.504;2022-07-29T13:27:30;29.40;34.50
13436;DHT22;6790;49.520;8.504;2022-07-29T13:29:59;29.30;35.70
13436;DHT22;6790;49.520;8.504;2022-07-29T13:32:27;29.20;35.90
13436;DHT22;6790;49.520;8.504;2022-07-29T13:34:59;29.00;34.40
13436;DHT22;6790;49.520;8.504;2022-07-29T13:37:27;28.80;38.30
13436;DHT22;6790;49.520;8.504;2022-07-29T13:39:57;28.80;37.50
13436;DHT22;6790;49.520;8.504;2022-07-29T13:42:24;28.80;36.70
13436;DHT22;6790;49.520;8.504;2022-07-29T13:44:50;28.60;35.50
13436;DHT22;6790;49.520;8.504;2022-07-29T13:47:17;28.70;33.10
13436;DHT22;6790;49.520;8.504;2022-07-29T13:49:43;28.60;33.00
13436;DHT22;6790;49.520;8.504;2022-07-29T13:52:09;28.50;34.50
13436;DHT22;6790;49.520;8.504;2022-07-29T13:54:35;28.60;35.60
13436;DHT22;6790;49.520;8.504;2022-07-29T13:57:03;28.80;35.50
13436;DHT22;6790;49.520;8.504;2022-07-29T13:59:29;28.80;35.00
13436;DHT22;6790;49.520;8.504;2022-07-29T14:01:55;28.80;38.50
13436;DHT22;6790;49.520;8.504;2022-07-29T14:04:21;29.00;40.00
13436;DHT22;6790;49.520;8.504;2022-07-29T14:06:51;29.50;38.20
13436;DHT22;6790;49.520;8.504;2022-07-29T14:09:17;30.00;35.50
13436;DHT22;6790;49.520;8.504;2022-07-29T14:11:43;29.90;33.90
13436;DHT22;6790;49.520;8.504;2022-07-29T14:14:09;29.40;35.00
13436;DHT22;6790;49.520;8.504;2022-07-29T14:16:35;29.30;35.00
13436;DHT22;6790;49.520;8.504;2022-07-29T14:19:02;29.20;35.40
13436;DHT22;6790;49.520;8.504;2022-07-29T14:21:28;28.90;37.30
13436;DHT22;6790;49.520;8.504;2022-07-29T14:23:54;28.90;38.30
13436;DHT22;6790;49.520;8.504;2022-07-29T14:26:21;29.10;34.60
13436;DHT22;6790;49.520;8.504;2022-07-29T14:28:48;29.50;34.70
13436;DHT22;6790;49.520;8.504;2022-07-29T14:31:14;29.60;35.80
13436;DHT22;6790;49.520;8.504;2022-07-29T14:33:40;29.80;31.20
13436;DHT22;6790;49.520;8.504;2022-07-29T14:36:06;29.90;34.20
13436;DHT22;6790;49.520;8.504;2022-07-29T14:38:31;30.10;31.10
13436;DHT22;6790;49.520;8.504;2022-07-29T14:40:57;30.20;34.90
13436;DHT22;6790;49.520;8.504;2022-07-29T14:43:23;30.20;32.70
13436;DHT22;6790;49.520;8.504;2022-07-29T14:45:49;30.50;30.20
13436;DHT22;6790;49.520;8.504;2022-07-29T14:48:14;30.70;28.00
13436;DHT22;6790;49.520;8.504;2022-07-29T14:50:40;30.50;28.30
13436;DHT22;6790;49.520;8.504;2022-07-29T14:53:06;30.20;31.70
13436;DHT22;6790;49.520;8.504;2022-07-29T14:55:32;30.00;30.00
13436;DHT22;6790;49.520;8.504;2022-07-29T14:57:57;29.80;31.10
13436;DHT22;6790;49.520;8.504;2022-07-29T15:00:24;29.90;29.80
13436;DHT22;6790;49.520;8.504;2022-07-29T15:02:50;30.20;28.70
13436;DHT22;6790;49.520;8.504;2022-07-29T15:05:16;30.10;31.60
13436;DHT22;6790;49.520;8.504;2022-07-29T15:07:42;29.50;30.20
13436;DHT22;6790;49.520;8.504;2022-07-29T15:10:08;29.30;29.80
13436;DHT22;6790;49.520;8.504;2022-07-29T15:12:34;29.30;29.80
13436;DHT22;6790;49.520;8.504;2022-07-29T15:15:00;29.40;29.10
13436;DHT22;6790;49.520;8.504;2022-07-29T15:17:26;29.30;30.10
13436;DHT22;6790;49.520;8.504;2022-07-29T15:19:52;29.30;33.30
13436;DHT22;6790;49.520;8.504;2022-07-29T15:22:18;29.40;32.40
13436;DHT22;6790;49.520;8.504;2022-07-29T15:24:43;29.50;29.10
13436;DHT22;6790;49.520;8.504;2022-07-29T15:27:09;29.60;29.50
13436;DHT22;6790;49.520;8.504;2022-07-29T15:29:43;29.60;29.10
13436;DHT22;6790;49.520;8.504;2022-07-29T15:32:10;29.80;27.20
13436;DHT22;6790;49.520;8.504;2022-07-29T15:34:36;29.70;28.10
13436;DHT22;6790;49.520;8.504;2022-07-29T15:37:04;29.50;28.60
13436;DHT22;6790;49.520;8.504;2022-07-29T15:39:30;29.40;29.40
13436;DHT22;6790;49.520;8.504;2022-07-29T15:41:56;29.40;31.40
13436;DHT22;6790;49.520;8.504;2022-07-29T15:44:22;29.30;28.40
13436;DHT22;6790;49.520;8.504;2022-07-29T15:46:49;29.20;27.90
13436;DHT22;6790;49.520;8.504;2022-07-29T15:49:39;29.30;29.50
13436;DHT22;6790;49.520;8.504;2022-07-29T15:52:07;29.00;28.30
13436;DHT22;6790;49.520;8.504;2022-07-29T15:54:35;28.90;30.60
13436;DHT22;6790;49.520;8.504;2022-07-29T15:57:03;28.60;30.00
13436;DHT22;6790;49.520;8.504;2022-07-29T15:59:29;28.60;33.60
13436;DHT22;6790;49.520;8.504;2022-07-29T16:01:55;28.50;29.60
13436;DHT22;6790;49.520;8.504;2022-07-29T16:04:21;28.50;30.60
13436;DHT22;6790;49.520;8.504;2022-07-29T16:06:47;28.60;29.80
13436;DHT22;6790;49.520;8.504;2022-07-29T16:09:14;28.80;30.80
13436;DHT22;6790;49.520;8.504;2022-07-29T16:11:41;28.90;29.20
13436;DHT22;6790;49.520;8.504;2022-07-29T16:14:07;29.20;27.40
13436;DHT22;6790;49.520;8.504;2022-07-29T16:16:35;29.30;26.50
13436;DHT22;6790;49.520;8.504;2022-07-29T16:19:01;29.40;26.40
13436;DHT22;6790;49.520;8.504;2022-07-29T16:21:27;29.30;26.80
13436;DHT22;6790;49.520;8.504;2022-07-29T16:23:53;29.20;29.80
13436;DHT22;6790;49.520;8.504;2022-07-29T16:26:18;29.10;28.80
13436;DHT22;6790;49.520;8.504;2022-07-29T16:28:44;29.00;30.20
13436;DHT22;6790;49.520;8.504;2022-07-29T16:31:10;29.10;30.30
13436;DHT22;6790;49.520;8.504;2022-07-29T16:33:36;29.00;34.60
13436;DHT22;6790;49.520;8.504;2022-07-29T16:36:01;28.90;34.00
13436;DHT22;6790;49.520;8.504;2022-07-29T16:38:27;28.70;37.60
13436;DHT22;6790;49.520;8.504;2022-07-29T16:40:52;28.40;37.00
13436;DHT22;6790;49.520;8.504;2022-07-29T16:43:18;28.30;36.00